createdAt,value
2023-01-01T00:02:23.810Z,16.00
2023-01-01T00:04:50.465Z,15.90
2023-01-01T00:07:17.179Z,15.90
2023-01-01T00:10:02.584Z,15.90
2023-01-01T00:12:29.166Z,15.90
2023-01-01T00:14:55.742Z,15.90
2023-01-01T00:17:22.326Z,15.90
2023-01-01T00:19:49.025Z,16.00
2023-01-01T00:22:52.612Z,16.00
2023-01-01T00:25:02.492Z,16.00
2023-01-01T00:27:29.068Z,16.10
2023-01-01T00:29:55.685Z,16.10
2023-01-01T00:32:23.223Z,16.10
2023-01-01T00:34:50.053Z,16.10
2023-01-01T00:37:18.099Z,16.00
2023-01-01T00:39:45.313Z,16.20
2023-01-01T00:42:12.022Z,16.20
2023-01-01T00:44:38.587Z,16.10
2023-01-01T00:47:05.488Z,16.00
2023-01-01T00:49:32.076Z,16.00
2023-01-01T00:51:59.087Z,16.00
2023-01-01T00:54:25.769Z,16.20
2023-01-01T00:56:52.426Z,16.30
2023-01-01T00:59:21.529Z,16.10
2023-01-01T01:01:50.541Z,16.20
2023-01-01T01:04:17.279Z,16.10
2023-01-01T01:06:43.868Z,16.10
2023-01-01T01:09:10.547Z,16.20
2023-01-01T01:11:37.126Z,16.10
2023-01-01T01:14:03.766Z,16.10
2023-01-01T01:16:32.741Z,16.30
2023-01-01T01:19:04.964Z,16.20
2023-01-01T01:21:34.252Z,16.30
2023-01-01T01:24:03.246Z,16.50
2023-01-01T01:26:32.504Z,16.40
2023-01-01T01:28:59.432Z,16.40
2023-01-01T01:31:29.082Z,16.30
2023-01-01T01:33:55.696Z,16.60
2023-01-01T01:36:22.445Z,16.50
2023-01-01T01:38:49.858Z,16.50
2023-01-01T01:41:27.320Z,16.50
2023-01-01T01:43:58.107Z,16.40
2023-01-01T01:46:41.506Z,16.30
2023-01-01T01:49:31.743Z,16.40
2023-01-01T01:52:00.829Z,16.50
2023-01-01T01:54:28.649Z,16.20
2023-01-01T01:57:02.773Z,16.20
2023-01-01T01:59:42.633Z,16.10
2023-01-01T02:02:33.268Z,16.20
2023-01-01T02:05:00.068Z,16.10
2023-01-01T02:07:29.506Z,16.10
2023-01-01T02:09:57.180Z,16.00
2023-01-01T02:12:24.759Z,16.00
2023-01-01T02:14:51.510Z,16.00
2023-01-01T02:17:42.299Z,16.10
2023-01-01T02:20:27.441Z,16.00
2023-01-01T02:23:38.178Z,16.20
2023-01-01T02:26:26.036Z,16.30
2023-01-01T02:29:07.660Z,16.20
2023-01-01T02:31:56.903Z,16.20
2023-01-01T02:34:28.667Z,16.10
2023-01-01T02:36:57.647Z,16.30
2023-01-01T02:39:28.223Z,16.20
2023-01-01T02:41:57.731Z,16.20
2023-01-01T02:44:26.796Z,16.20
2023-01-01T02:46:53.650Z,16.00
2023-01-01T02:49:20.251Z,16.00
2023-01-01T02:52:20.137Z,15.90
2023-01-01T02:55:27.557Z,15.80
2023-01-01T02:58:26.913Z,15.80
2023-01-01T03:00:58.360Z,15.70
2023-01-01T03:03:28.649Z,15.90
2023-01-01T03:06:22.758Z,15.80
2023-01-01T03:09:20.913Z,15.80
2023-01-01T03:12:08.774Z,15.80
2023-01-01T03:14:45.953Z,15.60
2023-01-01T03:17:33.451Z,15.90
2023-01-01T03:20:06.072Z,15.70
2023-01-01T03:25:19.576Z,15.70
2023-01-01T03:28:02.493Z,15.60
2023-01-01T03:30:31.959Z,15.60
2023-01-01T03:33:11.365Z,15.60
2023-01-01T03:35:43.683Z,15.70
2023-01-01T03:38:22.583Z,15.70
2023-01-01T03:40:52.704Z,15.60
2023-01-01T03:43:39.360Z,15.70
2023-01-01T03:46:08.405Z,15.60
2023-01-01T03:49:02.074Z,15.60
2023-01-01T03:51:35.471Z,15.60
2023-01-01T03:54:08.569Z,15.60
2023-01-01T03:56:38.695Z,15.50
2023-01-01T03:59:19.987Z,15.60
2023-01-01T04:01:52.608Z,15.60
2023-01-01T04:04:20.072Z,15.50
2023-01-01T04:06:47.164Z,15.50
2023-01-01T04:09:18.817Z,15.50
2023-01-01T04:12:04.061Z,15.50
2023-01-01T04:14:35.232Z,15.50
2023-01-01T04:17:04.693Z,15.40
2023-01-01T04:19:31.699Z,15.60
2023-01-01T04:21:58.432Z,15.40
2023-01-01T04:24:25.140Z,15.40
2023-01-01T04:26:53.036Z,15.30
2023-01-01T04:29:20.380Z,15.40
2023-01-01T04:31:49.266Z,15.40
2023-01-01T04:34:16.672Z,15.60
2023-01-01T04:36:43.467Z,15.50
2023-01-01T04:42:00.097Z,15.40
2023-01-01T04:44:26.657Z,15.30
2023-01-01T04:46:58.403Z,15.20
2023-01-01T04:49:27.413Z,15.20
2023-01-01T04:51:54.003Z,15.30
2023-01-01T04:54:20.549Z,15.30
2023-01-01T04:56:47.151Z,15.20
2023-01-01T04:59:13.817Z,15.20
2023-01-01T05:01:40.559Z,15.20
2023-01-01T05:04:07.283Z,15.10
2023-01-01T05:06:33.912Z,15.20
2023-01-01T05:09:01.256Z,15.20
2023-01-01T05:11:29.637Z,15.10
2023-01-01T05:13:58.696Z,15.20
2023-01-01T05:16:28.446Z,15.20
2023-01-01T05:18:55.433Z,15.10
2023-01-01T05:21:31.901Z,15.20
2023-01-01T05:24:10.083Z,15.10
2023-01-01T05:26:39.489Z,15.00
2023-01-01T05:29:13.785Z,15.00
2023-01-01T05:31:42.745Z,15.10
2023-01-01T05:34:09.444Z,15.10
2023-01-01T05:36:38.463Z,15.10
2023-01-01T05:39:09.889Z,15.30
2023-01-01T05:41:36.995Z,15.30
2023-01-01T05:44:06.485Z,15.30
2023-01-01T05:46:33.402Z,15.30
2023-01-01T05:49:00.561Z,15.30
2023-01-01T05:51:29.003Z,15.20
2023-01-01T05:53:56.343Z,15.20
2023-01-01T05:56:23.506Z,15.30
2023-01-01T05:58:53.332Z,15.30
2023-01-01T06:01:22.784Z,15.30
2023-01-01T06:03:49.947Z,15.20
2023-01-01T06:06:19.037Z,15.20
2023-01-01T06:08:50.713Z,15.40
2023-01-01T06:11:17.713Z,15.20
2023-01-01T06:13:44.643Z,15.20
2023-01-01T06:16:11.612Z,15.10
2023-01-01T06:18:38.686Z,15.10
2023-01-01T06:21:17.401Z,15.10
2023-01-01T06:23:44.705Z,15.10
2023-01-01T06:26:23.010Z,15.00
2023-01-01T06:28:50.061Z,15.10
2023-01-01T06:31:19.668Z,15.10
2023-01-01T06:33:47.332Z,15.00
2023-01-01T06:36:16.055Z,14.90
2023-01-01T06:38:45.495Z,14.90
2023-01-01T06:41:14.656Z,14.80
2023-01-01T06:43:41.758Z,14.80
2023-01-01T06:46:20.749Z,14.80
2023-01-01T06:48:49.691Z,14.80
2023-01-01T06:51:19.379Z,14.70
2023-01-01T06:53:47.235Z,14.60
2023-01-01T06:56:14.656Z,14.50
2023-01-01T06:58:41.359Z,14.40
2023-01-01T07:01:16.374Z,14.40
2023-01-01T07:03:43.912Z,14.40
2023-01-01T07:06:11.162Z,14.40
2023-01-01T07:08:38.125Z,14.50
2023-01-01T07:11:04.846Z,14.50
2023-01-01T07:13:31.662Z,14.60
2023-01-01T07:15:58.552Z,14.50
2023-01-01T07:18:26.059Z,14.50
2023-01-01T07:20:56.773Z,14.50
2023-01-01T07:23:24.071Z,14.60
2023-01-01T07:25:51.765Z,14.70
2023-01-01T07:28:18.829Z,14.70
2023-01-01T07:30:45.795Z,14.80
2023-01-01T07:33:14.007Z,14.70
2023-01-01T07:35:41.012Z,14.70
2023-01-01T07:38:07.690Z,14.70
2023-01-01T07:40:34.360Z,14.80
2023-01-01T07:43:00.964Z,14.90
2023-01-01T07:45:28.058Z,14.80
2023-01-01T07:47:56.483Z,14.80
2023-01-01T07:50:25.240Z,14.90
2023-01-01T07:52:51.840Z,14.90
2023-01-01T07:55:19.607Z,14.90
2023-01-01T07:57:46.974Z,14.90
2023-01-01T08:00:16.775Z,14.90
2023-01-01T08:02:43.698Z,14.90
2023-01-01T08:05:10.868Z,15.00
2023-01-01T08:07:37.979Z,15.00
2023-01-01T08:10:06.436Z,14.90
2023-01-01T08:12:33.466Z,15.00
2023-01-01T08:15:00.140Z,14.90
2023-01-01T08:17:26.764Z,15.10
2023-01-01T08:19:53.381Z,15.10
2023-01-01T08:22:20.174Z,15.00
2023-01-01T08:24:46.814Z,15.00
2023-01-01T08:27:14.234Z,14.90
2023-01-01T08:29:41.453Z,15.00
2023-01-01T08:32:08.224Z,15.00
2023-01-01T08:34:34.811Z,14.90
2023-01-01T08:37:01.383Z,14.80
2023-01-01T08:39:28.309Z,14.80
2023-01-01T08:41:54.966Z,14.70
2023-01-01T08:44:21.645Z,14.70
2023-01-01T08:46:48.363Z,14.70
2023-01-01T08:49:15.062Z,14.70
2023-01-01T08:51:41.722Z,14.70
2023-01-01T08:54:08.436Z,14.60
2023-01-01T08:56:35.150Z,14.60
2023-01-01T08:59:04.413Z,14.50
2023-01-01T09:01:31.782Z,14.60
2023-01-01T09:03:58.383Z,14.60
2023-01-01T09:06:25.134Z,14.50
2023-01-01T09:08:51.788Z,14.40
2023-01-01T09:11:27.886Z,14.40
2023-01-01T09:13:54.811Z,14.40
2023-01-01T09:16:22.567Z,14.30
2023-01-01T09:18:49.777Z,14.30
2023-01-01T09:21:16.606Z,14.20
2023-01-01T09:23:43.186Z,14.20
2023-01-01T09:26:10.766Z,14.20
2023-01-01T09:28:38.488Z,14.10
2023-01-01T09:31:06.381Z,14.10
2023-01-01T09:33:33.923Z,14.00
2023-01-01T09:36:13.131Z,13.90
2023-01-01T09:38:39.845Z,13.70
2023-01-01T09:41:25.626Z,13.60
2023-01-01T09:44:10.945Z,13.60
2023-01-01T09:46:38.208Z,13.50
2023-01-01T09:49:21.097Z,13.40
2023-01-01T09:51:58.050Z,13.40
2023-01-01T09:54:33.372Z,13.40
2023-01-01T09:57:03.847Z,13.30
2023-01-01T09:59:30.694Z,13.30
2023-01-01T10:02:10.657Z,13.20
2023-01-01T10:05:00.900Z,13.10
2023-01-01T10:07:33.604Z,13.00
2023-01-01T10:10:08.157Z,12.90
2023-01-01T10:13:02.181Z,12.70
2023-01-01T10:15:33.738Z,12.50
2023-01-01T10:18:06.707Z,11.60
2023-01-01T10:20:38.644Z,11.40
2023-01-01T10:23:12.439Z,11.30
2023-01-01T10:25:40.646Z,11.20
2023-01-01T10:28:15.319Z,11.10
2023-01-01T10:30:42.858Z,11.00
2023-01-01T10:33:13.008Z,11.00
2023-01-01T10:35:42.940Z,11.00
2023-01-01T10:38:23.420Z,11.00
2023-01-01T10:40:52.297Z,11.00
2023-01-01T10:43:18.887Z,11.00
2023-01-01T10:45:51.015Z,11.10
2023-01-01T10:48:19.348Z,11.20
2023-01-01T10:50:50.231Z,11.20
2023-01-01T10:53:36.577Z,11.30
2023-01-01T10:56:11.237Z,11.50
2023-01-01T10:58:46.608Z,11.60
2023-01-01T11:01:28.570Z,11.70
2023-01-01T11:04:23.242Z,11.80
2023-01-01T11:06:49.937Z,11.90
2023-01-01T11:09:22.536Z,11.90
2023-01-01T11:12:00.780Z,12.00
2023-01-01T11:14:42.886Z,11.90
2023-01-01T11:17:10.299Z,11.70
2023-01-01T11:19:40.254Z,11.60
2023-01-01T11:22:34.238Z,11.60
2023-01-01T11:25:02.764Z,11.60
2023-01-01T11:27:29.391Z,11.50
2023-01-01T11:30:28.927Z,11.60
2023-01-01T11:33:01.748Z,11.50
2023-01-01T11:35:31.217Z,11.50
2023-01-01T11:37:58.859Z,11.50
2023-01-01T11:40:45.420Z,11.50
2023-01-01T11:43:20.598Z,11.40
2023-01-01T11:45:48.232Z,11.30
2023-01-01T11:48:32.854Z,11.20
2023-01-01T11:51:03.291Z,11.20
2023-01-01T11:53:34.384Z,11.30
2023-01-01T11:56:21.482Z,11.30
2023-01-01T11:58:51.871Z,11.20
2023-01-01T12:01:48.272Z,11.20
2023-01-01T12:04:26.508Z,11.10
2023-01-01T12:06:59.660Z,11.00
2023-01-01T12:09:57.551Z,11.00
2023-01-01T12:12:29.922Z,11.00
2023-01-01T12:15:03.603Z,10.90
2023-01-01T12:18:24.188Z,11.00
2023-01-01T12:20:59.090Z,10.90
2023-01-01T12:23:26.000Z,10.90
2023-01-01T12:26:02.913Z,10.90
2023-01-01T12:28:43.190Z,10.90
2023-01-01T12:31:25.647Z,10.80
2023-01-01T12:34:11.737Z,10.80
2023-01-01T12:37:08.640Z,10.90
2023-01-01T12:39:55.604Z,11.00
2023-01-01T12:42:46.942Z,11.00
2023-01-01T12:45:32.081Z,11.10
2023-01-01T12:48:20.837Z,11.10
2023-01-01T12:51:15.327Z,11.10
2023-01-01T12:54:07.534Z,11.10
2023-01-01T12:56:56.103Z,11.10
2023-01-01T12:59:26.797Z,11.20
2023-01-01T13:02:00.598Z,11.20
2023-01-01T13:04:27.637Z,11.30
2023-01-01T13:07:08.922Z,11.40
2023-01-01T13:09:39.306Z,11.60
2023-01-01T13:12:21.342Z,11.80
2023-01-01T13:14:51.902Z,11.90
2023-01-01T13:17:29.970Z,11.90
2023-01-01T13:20:00.523Z,11.90
2023-01-01T13:22:27.086Z,11.80
2023-01-01T13:25:05.903Z,11.90
2023-01-01T13:28:03.321Z,11.90
2023-01-01T13:30:50.791Z,11.80
2023-01-01T13:33:33.136Z,11.80
2023-01-01T13:36:09.190Z,11.80
2023-01-01T13:38:53.299Z,11.90
2023-01-01T13:41:44.668Z,11.80
2023-01-01T13:44:17.254Z,11.90
2023-01-01T13:46:44.055Z,11.80
2023-01-01T13:49:29.682Z,11.70
2023-01-01T13:52:07.653Z,11.60
2023-01-01T13:54:56.271Z,11.50
2023-01-01T13:57:31.649Z,11.50
2023-01-01T14:00:07.501Z,11.50
2023-01-01T14:02:41.713Z,11.50
2023-01-01T14:05:29.160Z,11.40
2023-01-01T14:07:56.159Z,11.40
2023-01-01T14:10:32.857Z,11.40
2023-01-01T14:13:05.518Z,11.40
2023-01-01T14:15:36.845Z,11.40
2023-01-01T14:18:13.343Z,11.30
2023-01-01T14:20:46.012Z,11.40
2023-01-01T14:23:21.651Z,11.40
2023-01-01T14:25:48.584Z,11.40
2023-01-01T14:28:20.839Z,11.50
2023-01-01T14:30:47.764Z,11.50
2023-01-01T14:33:32.131Z,11.60
2023-01-01T14:36:01.535Z,11.70
2023-01-01T14:38:30.994Z,11.70
2023-01-01T14:41:09.934Z,11.70
2023-01-01T14:43:41.591Z,11.70
2023-01-01T14:46:13.221Z,11.70
2023-01-01T14:48:44.821Z,11.70
2023-01-01T14:51:23.518Z,11.70
2023-01-01T14:53:52.509Z,11.70
2023-01-01T14:56:37.189Z,11.60
2023-01-01T14:59:17.342Z,11.60
2023-01-01T15:01:44.248Z,11.60
2023-01-01T15:04:31.351Z,11.60
2023-01-01T15:07:00.660Z,11.60
2023-01-01T15:09:28.656Z,11.70
2023-01-01T15:11:56.876Z,11.70
2023-01-01T15:14:35.190Z,11.70
2023-01-01T15:17:04.304Z,11.80
2023-01-01T15:19:31.032Z,11.80
2023-01-01T15:21:58.737Z,11.80
2023-01-01T15:24:30.234Z,11.80
2023-01-01T15:26:59.734Z,11.80
2023-01-01T15:29:30.856Z,11.90
2023-01-01T15:32:24.687Z,11.80
2023-01-01T15:34:52.470Z,11.80
2023-01-01T15:37:57.578Z,11.80
2023-01-01T15:40:24.136Z,11.80
2023-01-01T15:42:56.537Z,11.80
2023-01-01T15:45:27.852Z,11.80
2023-01-01T15:47:57.116Z,11.70
2023-01-01T15:50:28.811Z,11.70
2023-01-01T15:53:01.197Z,11.70
2023-01-01T15:55:29.468Z,11.70
2023-01-01T15:57:56.971Z,11.70
2023-01-01T16:00:28.204Z,11.70
2023-01-01T16:03:00.108Z,11.70
2023-01-01T16:05:28.967Z,11.60
2023-01-01T16:08:04.076Z,11.50
2023-01-01T16:10:31.931Z,11.40
2023-01-01T16:12:59.166Z,11.30
2023-01-01T16:15:26.137Z,11.20
2023-01-01T16:17:52.847Z,11.20
2023-01-01T16:20:22.032Z,11.10
2023-01-01T16:22:48.886Z,11.00
2023-01-01T16:25:17.992Z,11.00
2023-01-01T16:27:44.607Z,11.00
2023-01-01T16:30:12.492Z,11.00
2023-01-01T16:32:39.668Z,11.10
2023-01-01T16:35:11.812Z,11.20
2023-01-01T16:37:38.751Z,11.20
2023-01-01T16:40:06.347Z,11.20
2023-01-01T16:42:32.949Z,11.30
2023-01-01T16:44:59.520Z,11.40
2023-01-01T16:47:26.128Z,11.40
2023-01-01T16:49:52.691Z,11.50
2023-01-01T16:52:19.459Z,11.50
2023-01-01T16:54:46.029Z,11.50
2023-01-01T16:57:12.622Z,11.50
2023-01-01T16:59:39.284Z,11.50
2023-01-01T17:02:06.547Z,11.40
2023-01-01T17:04:35.090Z,11.40
2023-01-01T17:07:01.630Z,11.40
2023-01-01T17:09:28.257Z,11.40
2023-01-01T17:11:54.812Z,11.50
2023-01-01T17:14:21.404Z,11.50
2023-01-01T17:16:48.095Z,11.60
2023-01-01T17:19:16.652Z,11.60
2023-01-01T17:21:45.378Z,11.60
2023-01-01T17:24:11.967Z,11.70
2023-01-01T17:26:38.828Z,11.80
2023-01-01T17:29:07.411Z,11.80
2023-01-01T17:31:34.524Z,11.80
2023-01-01T17:34:01.428Z,11.80
2023-01-01T17:36:28.267Z,11.80
2023-01-01T17:38:55.290Z,11.90
2023-01-01T17:41:22.238Z,11.90
2023-01-01T17:43:50.766Z,11.90
2023-01-01T17:46:20.035Z,11.90
2023-01-01T17:48:47.361Z,11.80
2023-01-01T17:51:15.173Z,11.90
2023-01-01T17:53:41.806Z,11.90
2023-01-01T17:56:09.926Z,11.90
2023-01-01T17:58:36.538Z,11.90
2023-01-01T18:01:21.681Z,11.90
2023-01-01T18:03:50.530Z,11.80
2023-01-01T18:06:17.340Z,11.90
2023-01-01T18:08:44.012Z,11.90
2023-01-01T18:11:10.591Z,12.00
2023-01-01T18:13:37.444Z,11.90
2023-01-01T18:16:06.911Z,11.90
2023-01-01T18:18:39.135Z,11.90
2023-01-01T18:21:11.563Z,11.90
2023-01-01T18:23:39.965Z,11.90
2023-01-01T18:26:09.569Z,11.80
2023-01-01T18:28:36.238Z,11.90
2023-01-01T18:31:30.550Z,11.90
2023-01-01T18:33:57.541Z,12.00
2023-01-01T18:36:27.384Z,12.00
2023-01-01T18:39:13.248Z,12.00
2023-01-01T18:41:48.405Z,11.90
2023-01-01T18:44:15.083Z,11.80
2023-01-01T18:46:41.704Z,11.80
2023-01-01T18:49:09.701Z,12.00
2023-01-01T18:51:36.267Z,12.00
2023-01-01T18:54:13.080Z,12.10
2023-01-01T18:56:40.469Z,12.10
2023-01-01T18:59:20.985Z,12.10
2023-01-01T19:01:48.657Z,12.10
2023-01-01T19:04:15.862Z,12.00
2023-01-01T19:06:42.709Z,12.10
2023-01-01T19:09:22.452Z,12.10
2023-01-01T19:11:53.964Z,12.10
2023-01-01T19:14:23.651Z,12.10
2023-01-01T19:16:54.596Z,12.20
2023-01-01T19:19:23.886Z,12.10
2023-01-01T19:21:54.319Z,12.10
2023-01-01T19:24:24.751Z,12.10
2023-01-01T19:27:04.919Z,12.20
2023-01-01T19:29:31.504Z,12.20
2023-01-01T19:31:58.746Z,12.20
2023-01-01T19:34:25.684Z,12.20
2023-01-01T19:36:52.879Z,12.20
2023-01-01T19:39:19.620Z,12.20
2023-01-01T19:41:46.849Z,12.20
2023-01-01T19:44:13.526Z,12.20
2023-01-01T19:46:40.502Z,12.20
2023-01-01T19:49:07.142Z,12.30
2023-01-01T19:51:33.838Z,12.30
2023-01-01T19:54:00.489Z,12.30
2023-01-01T19:56:27.226Z,12.30
2023-01-01T19:58:53.939Z,12.40
2023-01-01T20:01:20.855Z,12.30
2023-01-01T20:03:57.123Z,12.30
2023-01-01T20:06:25.019Z,12.30
2023-01-01T20:08:52.176Z,12.30
2023-01-01T20:11:19.662Z,12.30
2023-01-01T20:13:46.310Z,12.30
2023-01-01T20:16:13.124Z,12.30
2023-01-01T20:18:39.750Z,12.30
2023-01-01T20:21:35.916Z,12.30
2023-01-01T20:24:02.890Z,12.30
2023-01-01T20:26:29.666Z,12.30
2023-01-01T20:29:14.720Z,12.30
2023-01-01T20:31:42.624Z,12.30
2023-01-01T20:34:09.336Z,12.30
2023-01-01T20:36:54.525Z,12.20
2023-01-01T20:39:24.138Z,12.20
2023-01-01T20:41:51.026Z,12.10
2023-01-01T20:44:17.829Z,12.10
2023-01-01T20:46:47.800Z,12.00
2023-01-01T20:49:16.890Z,11.90
2023-01-01T20:51:44.916Z,11.90
2023-01-01T20:54:11.854Z,11.90
2023-01-01T20:56:38.496Z,11.80
2023-01-01T20:59:24.633Z,11.80
2023-01-01T21:01:51.934Z,11.80
2023-01-01T21:04:18.790Z,11.80
2023-01-01T21:06:45.376Z,11.70
2023-01-01T21:09:12.142Z,11.70
2023-01-01T21:11:38.711Z,11.60
2023-01-01T21:14:05.275Z,11.60
2023-01-01T21:16:34.513Z,11.60
2023-01-01T21:19:02.968Z,11.50
2023-01-01T21:21:33.204Z,11.50
2023-01-01T21:24:17.129Z,11.50
2023-01-01T21:26:43.703Z,11.50
2023-01-01T21:29:21.274Z,11.60
2023-01-01T21:31:52.139Z,11.50
2023-01-01T21:34:31.994Z,11.50
2023-01-01T21:37:37.091Z,11.50
2023-01-01T21:40:21.697Z,11.50
2023-01-01T21:43:13.818Z,11.50
2023-01-01T21:45:44.171Z,11.50
2023-01-01T21:48:27.081Z,11.50
2023-01-01T21:50:53.777Z,11.50
2023-01-01T21:53:22.872Z,11.60
2023-01-01T21:55:52.228Z,11.50
2023-01-01T21:58:43.043Z,11.50
2023-01-01T22:01:38.201Z,11.60
2023-01-01T22:04:11.230Z,11.50
2023-01-01T22:06:43.550Z,11.50
2023-01-01T22:09:24.019Z,11.50
2023-01-01T22:11:56.184Z,11.50
2023-01-01T22:14:27.161Z,11.50
2023-01-01T22:16:56.229Z,11.50
2023-01-01T22:19:24.462Z,11.50
2023-01-01T22:21:52.865Z,11.50
2023-01-01T22:24:32.656Z,11.50
2023-01-01T22:27:20.258Z,11.50
2023-01-01T22:29:47.091Z,11.50
2023-01-01T22:32:34.555Z,11.50
2023-01-01T22:35:15.503Z,11.50
2023-01-01T22:37:42.471Z,11.50
2023-01-01T22:40:29.007Z,11.50
2023-01-01T22:43:06.819Z,11.50
2023-01-01T22:45:37.296Z,11.50
2023-01-01T22:48:06.700Z,11.60
2023-01-01T22:50:34.425Z,11.60
2023-01-01T22:53:00.983Z,11.50
2023-01-01T22:55:27.543Z,11.60
2023-01-01T22:57:54.079Z,11.60
2023-01-01T23:00:20.725Z,11.60
2023-01-01T23:02:47.335Z,11.60
2023-01-01T23:05:13.905Z,11.60
2023-01-01T23:07:42.411Z,11.60
2023-01-01T23:10:11.191Z,11.50
2023-01-01T23:12:37.783Z,11.50
2023-01-01T23:15:23.364Z,11.60
2023-01-01T23:17:49.949Z,11.60
2023-01-01T23:20:16.699Z,11.60
2023-01-01T23:22:49.500Z,11.60
2023-01-01T23:25:18.502Z,11.60
2023-01-01T23:27:47.024Z,11.60
2023-01-01T23:30:13.953Z,11.60
2023-01-01T23:32:41.709Z,11.70
2023-01-01T23:35:09.690Z,11.70
2023-01-01T23:37:36.647Z,11.80
2023-01-01T23:40:03.525Z,11.80
2023-01-01T23:42:30.196Z,11.80
2023-01-01T23:44:56.746Z,11.80
2023-01-01T23:47:23.326Z,11.80
2023-01-01T23:49:49.964Z,11.90
2023-01-01T23:52:16.533Z,11.90
2023-01-01T23:54:43.099Z,11.90
2023-01-01T23:57:09.663Z,11.90
2023-01-01T23:59:36.238Z,11.90
